createdAt,value
2022-08-27T00:00:08.334Z,19.05
2022-08-27T00:02:36.787Z,18.76
2022-08-27T00:05:05.778Z,18.92
2022-08-27T00:07:34.155Z,18.88
2022-08-27T00:10:05.167Z,18.82
2022-08-27T00:12:34.202Z,18.81
2022-08-27T00:15:05.344Z,18.67
2022-08-27T00:17:33.759Z,18.74
2022-08-27T00:20:02.575Z,18.61
2022-08-27T00:22:33.783Z,18.73
2022-08-27T00:25:02.251Z,18.54
2022-08-27T00:27:30.594Z,18.37
2022-08-27T00:30:01.023Z,18.55
2022-08-27T00:32:30.831Z,18.59
2022-08-27T00:34:59.199Z,18.58
2022-08-27T00:37:27.578Z,18.66
2022-08-27T00:39:56.050Z,18.60
2022-08-27T00:42:27.280Z,18.46
2022-08-27T00:44:59.623Z,18.54
2022-08-27T00:47:31.828Z,18.80
2022-08-27T00:50:08.804Z,18.62
2022-08-27T00:52:45.298Z,19.00
2022-08-27T00:55:18.511Z,18.51
2022-08-27T00:57:53.719Z,18.43
2022-08-27T01:00:22.367Z,18.39
2022-08-27T01:02:53.133Z,18.49
2022-08-27T01:05:25.413Z,18.55
2022-08-27T01:07:59.004Z,18.51
2022-08-27T01:10:29.499Z,18.58
2022-08-27T01:12:58.963Z,18.53
2022-08-27T01:15:29.904Z,18.45
2022-08-27T01:18:05.375Z,18.55
2022-08-27T01:20:42.306Z,18.51
2022-08-27T01:23:18.488Z,18.54
2022-08-27T01:25:48.834Z,18.45
2022-08-27T01:28:20.230Z,18.58
2022-08-27T01:30:51.977Z,18.41
2022-08-27T01:33:22.732Z,18.45
2022-08-27T01:35:52.218Z,18.59
2022-08-27T01:38:30.788Z,18.47
2022-08-27T01:41:03.525Z,18.86
2022-08-27T01:43:32.342Z,18.84
2022-08-27T01:46:01.146Z,18.90
2022-08-27T01:48:29.579Z,18.94
2022-08-27T01:51:00.028Z,19.06
2022-08-27T01:53:28.628Z,18.51
2022-08-27T01:55:58.017Z,18.28
2022-08-27T01:58:31.136Z,18.29
2022-08-27T02:01:03.625Z,18.26
2022-08-27T02:03:31.971Z,18.18
2022-08-27T02:06:00.694Z,18.20
2022-08-27T02:08:29.092Z,18.41
2022-08-27T02:10:57.391Z,18.42
2022-08-27T02:13:27.817Z,18.20
2022-08-27T02:15:56.403Z,18.32
2022-08-27T02:18:24.893Z,18.31
2022-08-27T02:20:55.309Z,18.34
2022-08-27T02:23:23.644Z,18.29
2022-08-27T02:25:52.574Z,18.37
2022-08-27T02:28:20.996Z,18.05
2022-08-27T02:30:50.736Z,18.18
2022-08-27T02:33:19.055Z,18.35
2022-08-27T02:35:47.560Z,18.08
2022-08-27T02:38:15.947Z,18.05
2022-08-27T02:40:44.430Z,17.95
2022-08-27T02:43:16.087Z,17.88
2022-08-27T02:45:55.293Z,18.02
2022-08-27T02:48:24.681Z,18.24
2022-08-27T02:50:53.231Z,18.20
2022-08-27T02:53:21.956Z,18.20
2022-08-27T02:55:52.989Z,18.00
2022-08-27T02:58:21.729Z,18.27
2022-08-27T03:00:53.880Z,18.26
2022-08-27T03:03:22.195Z,18.24
2022-08-27T03:05:50.503Z,18.30
2022-08-27T03:08:19.235Z,18.26
2022-08-27T03:10:47.582Z,18.28
2022-08-27T03:13:15.950Z,18.52
2022-08-27T03:15:44.348Z,18.18
2022-08-27T03:18:19.018Z,18.14
2022-08-27T03:20:50.445Z,18.54
2022-08-27T03:23:23.103Z,18.38
2022-08-27T03:25:54.762Z,18.40
2022-08-27T03:28:27.759Z,18.43
2022-08-27T03:31:00.056Z,18.23
2022-08-27T03:33:31.632Z,18.48
2022-08-27T03:36:00.493Z,18.44
2022-08-27T03:38:28.938Z,18.34
2022-08-27T03:40:59.647Z,18.30
2022-08-27T03:43:27.944Z,18.73
2022-08-27T03:46:01.352Z,18.66
2022-08-27T03:48:34.029Z,18.64
2022-08-27T03:51:06.591Z,18.33
2022-08-27T03:53:35.092Z,18.37
2022-08-27T03:56:06.179Z,18.39
2022-08-27T03:58:35.478Z,18.62
2022-08-27T04:01:04.967Z,18.42
2022-08-27T04:03:35.213Z,18.57
2022-08-27T04:06:04.087Z,18.35
2022-08-27T04:08:33.025Z,18.41
2022-08-27T04:11:01.736Z,18.27
2022-08-27T04:13:30.470Z,18.25
2022-08-27T04:15:58.845Z,18.49
2022-08-27T04:18:29.678Z,18.45
2022-08-27T04:20:59.555Z,18.40
2022-08-27T04:23:27.915Z,18.26
2022-08-27T04:25:56.251Z,18.61
2022-08-27T04:28:24.701Z,18.72
2022-08-27T04:30:53.133Z,18.76
2022-08-27T04:33:21.443Z,18.65
2022-08-27T04:35:59.938Z,18.55
2022-08-27T04:38:28.544Z,18.70
2022-08-27T04:41:14.555Z,18.23
2022-08-27T04:43:45.163Z,18.08
2022-08-27T04:46:13.883Z,18.30
2022-08-27T04:48:45.184Z,18.37
2022-08-27T04:51:14.831Z,18.49
2022-08-27T04:53:45.827Z,18.44
2022-08-27T04:56:18.315Z,18.49
2022-08-27T04:58:46.693Z,18.53
2022-08-27T05:01:17.484Z,18.77
2022-08-27T05:03:46.577Z,18.87
2022-08-27T05:06:18.584Z,18.64
2022-08-27T05:08:48.805Z,18.62
2022-08-27T05:11:18.618Z,18.62
2022-08-27T05:13:47.858Z,18.43
2022-08-27T05:16:19.215Z,18.58
2022-08-27T05:18:48.702Z,18.38
2022-08-27T05:21:20.197Z,18.37
2022-08-27T05:23:48.620Z,18.56
2022-08-27T05:26:17.223Z,18.71
2022-08-27T05:28:45.977Z,18.65
2022-08-27T05:31:17.218Z,18.72
2022-08-27T05:33:47.176Z,18.85
2022-08-27T05:36:18.404Z,18.78
2022-08-27T05:38:50.321Z,18.37
2022-08-27T05:41:21.180Z,18.71
2022-08-27T05:43:50.690Z,18.84
2022-08-27T05:46:21.703Z,18.67
2022-08-27T05:48:51.372Z,18.75
2022-08-27T05:51:25.683Z,18.63
2022-08-27T05:53:58.552Z,19.03
2022-08-27T05:56:29.524Z,18.83
2022-08-27T05:59:15.793Z,18.86
2022-08-27T06:01:46.373Z,18.87
2022-08-27T06:04:17.820Z,19.14
2022-08-27T06:06:46.995Z,19.06
2022-08-27T06:09:19.426Z,18.96
2022-08-27T06:11:48.121Z,19.19
2022-08-27T06:14:16.860Z,19.39
2022-08-27T06:16:48.232Z,19.21
2022-08-27T06:19:17.564Z,19.35
2022-08-27T06:21:46.782Z,19.32
2022-08-27T06:24:31.270Z,19.58
2022-08-27T06:26:59.918Z,19.48
2022-08-27T06:29:28.249Z,19.48
2022-08-27T06:31:56.681Z,19.62
2022-08-27T06:34:24.995Z,19.66
2022-08-27T06:36:54.383Z,19.69
2022-08-27T06:39:22.804Z,19.64
2022-08-27T06:41:53.020Z,19.68
2022-08-27T06:44:24.286Z,20.15
2022-08-27T06:46:52.940Z,19.94
2022-08-27T06:49:21.283Z,19.97
2022-08-27T06:51:49.689Z,19.85
2022-08-27T06:54:20.048Z,19.75
2022-08-27T06:56:49.447Z,19.87
2022-08-27T06:59:20.682Z,19.79
2022-08-27T07:01:51.392Z,19.79
2022-08-27T07:04:32.636Z,19.62
2022-08-27T07:07:02.451Z,19.56
2022-08-27T07:09:32.365Z,19.53
2022-08-27T07:12:01.660Z,19.28
2022-08-27T07:14:37.146Z,19.58
2022-08-27T07:17:11.262Z,19.46
2022-08-27T07:19:45.416Z,19.99
2022-08-27T07:22:15.908Z,19.76
2022-08-27T07:24:44.528Z,19.93
2022-08-27T07:27:12.867Z,20.13
2022-08-27T07:29:42.596Z,20.05
2022-08-27T07:32:11.016Z,19.86
2022-08-27T07:34:39.366Z,19.95
2022-08-27T07:37:07.998Z,19.93
2022-08-27T07:39:36.344Z,20.04
2022-08-27T07:42:22.370Z,20.04
2022-08-27T07:44:52.106Z,20.11
2022-08-27T07:47:20.465Z,20.11
2022-08-27T07:49:48.763Z,20.02
2022-08-27T07:52:21.652Z,20.22
2022-08-27T07:54:51.974Z,20.10
2022-08-27T07:57:20.398Z,19.87
2022-08-27T07:59:48.739Z,19.81
2022-08-27T08:02:18.635Z,20.05
2022-08-27T08:04:47.659Z,19.94
2022-08-27T08:07:15.996Z,19.93
2022-08-27T08:09:44.337Z,19.78
2022-08-27T08:12:13.021Z,19.80
2022-08-27T08:14:41.637Z,19.87
2022-08-27T08:17:10.807Z,19.73
2022-08-27T08:19:41.311Z,19.61
2022-08-27T08:22:10.141Z,19.64
2022-08-27T08:24:38.484Z,19.57
2022-08-27T08:27:07.897Z,19.56
2022-08-27T08:29:37.590Z,19.58
2022-08-27T08:32:07.339Z,19.74
2022-08-27T08:34:36.768Z,19.74
2022-08-27T08:37:07.941Z,19.56
2022-08-27T08:39:36.884Z,19.72
2022-08-27T08:42:08.036Z,19.81
2022-08-27T08:44:38.796Z,19.64
2022-08-27T08:47:11.926Z,19.79
2022-08-27T08:49:49.850Z,20.07
2022-08-27T08:52:31.572Z,20.36
2022-08-27T08:55:13.329Z,20.25
2022-08-27T08:57:47.135Z,20.20
2022-08-27T09:00:16.059Z,20.13
2022-08-27T09:02:53.611Z,20.41
2022-08-27T09:05:27.677Z,20.25
2022-08-27T09:08:30.865Z,20.31
2022-08-27T09:11:00.555Z,20.75
2022-08-27T09:13:34.031Z,20.74
2022-08-27T09:16:04.787Z,20.12
2022-08-27T09:18:36.946Z,19.93
2022-08-27T09:21:17.349Z,19.72
2022-08-27T09:24:05.596Z,20.73
2022-08-27T09:26:37.779Z,20.66
2022-08-27T09:29:20.463Z,20.92
2022-08-27T09:31:59.288Z,20.79
2022-08-27T09:34:35.748Z,20.97
2022-08-27T09:37:08.594Z,20.91
2022-08-27T09:39:47.855Z,21.39
2022-08-27T09:42:36.284Z,21.46
2022-08-27T09:45:12.010Z,21.41
2022-08-27T09:47:46.031Z,20.91
2022-08-27T09:50:18.344Z,21.31
2022-08-27T09:52:52.140Z,21.42
2022-08-27T09:55:30.697Z,21.43
2022-08-27T09:58:00.009Z,21.50
2022-08-27T10:00:35.778Z,21.26
2022-08-27T10:03:04.928Z,21.45
2022-08-27T10:05:39.614Z,21.44
2022-08-27T10:08:18.871Z,20.61
2022-08-27T10:10:56.520Z,21.83
2022-08-27T10:13:32.055Z,21.87
2022-08-27T10:16:40.884Z,21.83
2022-08-27T10:19:20.105Z,21.79
2022-08-27T10:21:56.200Z,22.17
2022-08-27T10:24:37.113Z,21.94
2022-08-27T10:27:16.812Z,21.83
2022-08-27T10:29:53.440Z,22.10
2022-08-27T10:32:40.583Z,22.20
2022-08-27T10:35:16.977Z,22.12
2022-08-27T10:37:59.354Z,22.14
2022-08-27T10:40:33.335Z,21.87
2022-08-27T10:43:18.803Z,21.89
2022-08-27T10:45:53.579Z,21.81
2022-08-27T10:48:29.223Z,22.21
2022-08-27T10:51:05.917Z,21.91
2022-08-27T10:53:40.478Z,21.77
2022-08-27T10:56:18.354Z,21.74
2022-08-27T10:59:02.173Z,21.87
2022-08-27T11:01:43.396Z,22.06
2022-08-27T11:04:16.095Z,22.02
2022-08-27T11:06:50.987Z,22.28
2022-08-27T11:09:24.460Z,22.47
2022-08-27T11:12:13.871Z,22.37
2022-08-27T11:14:52.357Z,22.26
2022-08-27T11:17:32.064Z,22.05
2022-08-27T11:20:07.983Z,21.84
2022-08-27T11:22:39.921Z,21.49
2022-08-27T11:25:16.487Z,21.39
2022-08-27T11:27:47.780Z,21.36
2022-08-27T11:30:25.419Z,21.30
2022-08-27T11:33:04.897Z,21.29
2022-08-27T11:35:47.669Z,21.50
2022-08-27T11:38:35.752Z,21.95
2022-08-27T11:41:19.672Z,22.01
2022-08-27T11:43:48.248Z,22.05
2022-08-27T11:46:25.086Z,21.97
2022-08-27T11:48:59.627Z,22.01
2022-08-27T11:51:34.266Z,21.83
2022-08-27T11:54:04.467Z,21.66
2022-08-27T11:56:41.947Z,21.47
2022-08-27T11:59:21.570Z,21.54
2022-08-27T12:01:53.524Z,21.36
2022-08-27T12:04:33.928Z,21.37
2022-08-27T12:07:04.880Z,21.83
2022-08-27T12:09:54.601Z,21.98
2022-08-27T12:12:31.807Z,22.15
2022-08-27T12:15:06.045Z,22.23
2022-08-27T12:17:45.420Z,22.52
2022-08-27T12:20:25.162Z,22.12
2022-08-27T12:23:27.848Z,22.86
2022-08-27T12:25:58.679Z,23.14
2022-08-27T12:28:28.404Z,22.92
2022-08-27T12:30:58.557Z,23.17
2022-08-27T12:33:34.359Z,22.98
2022-08-27T12:36:11.069Z,22.93
2022-08-27T12:38:50.622Z,22.82
2022-08-27T12:41:27.708Z,23.24
2022-08-27T12:44:07.392Z,23.42
2022-08-27T12:46:45.621Z,23.15
2022-08-27T12:49:38.269Z,22.95
2022-08-27T12:52:19.835Z,22.95
2022-08-27T12:55:05.632Z,23.42
2022-08-27T12:57:43.087Z,23.06
2022-08-27T13:00:17.424Z,23.92
2022-08-27T13:03:14.197Z,24.08
2022-08-27T13:05:47.065Z,23.83
2022-08-27T13:08:21.573Z,23.94
2022-08-27T13:10:51.033Z,23.44
2022-08-27T13:13:22.268Z,23.71
2022-08-27T13:15:52.913Z,23.78
2022-08-27T13:18:21.610Z,24.14
2022-08-27T13:21:00.996Z,23.92
2022-08-27T13:23:29.958Z,23.66
2022-08-27T13:26:05.009Z,24.02
2022-08-27T13:28:35.450Z,23.59
2022-08-27T13:31:05.430Z,23.71
2022-08-27T13:33:35.864Z,23.50
2022-08-27T13:36:06.808Z,23.01
2022-08-27T13:38:38.290Z,23.26
2022-08-27T13:41:08.861Z,23.44
2022-08-27T13:43:40.135Z,23.48
2022-08-27T13:46:12.940Z,23.43
2022-08-27T13:48:42.531Z,23.42
2022-08-27T13:51:13.447Z,23.58
2022-08-27T13:54:03.301Z,23.76
2022-08-27T13:56:34.289Z,23.95
2022-08-27T13:59:14.531Z,23.71
2022-08-27T14:01:54.538Z,23.74
2022-08-27T14:04:27.370Z,23.67
2022-08-27T14:06:57.093Z,23.15
2022-08-27T14:09:28.954Z,23.05
2022-08-27T14:12:02.550Z,23.24
2022-08-27T14:14:36.763Z,22.94
2022-08-27T14:17:08.689Z,22.75
2022-08-27T14:19:39.954Z,22.89
2022-08-27T14:22:09.714Z,22.76
2022-08-27T14:24:38.080Z,22.84
2022-08-27T14:27:11.227Z,23.00
2022-08-27T14:29:40.056Z,23.25
2022-08-27T14:32:08.453Z,23.31
2022-08-27T14:34:37.248Z,23.06
2022-08-27T14:37:06.066Z,23.08
2022-08-27T14:39:36.282Z,22.84
2022-08-27T14:42:05.446Z,22.71
2022-08-27T14:44:34.039Z,22.55
2022-08-27T14:47:04.636Z,22.80
2022-08-27T14:49:41.556Z,22.46
2022-08-27T14:52:13.551Z,22.02
2022-08-27T14:54:43.936Z,21.97
2022-08-27T14:57:12.585Z,21.97
2022-08-27T14:59:41.187Z,21.84
2022-08-27T15:02:13.817Z,21.78
2022-08-27T15:04:44.268Z,21.75
2022-08-27T15:07:16.503Z,21.41
2022-08-27T15:09:47.055Z,21.77
2022-08-27T15:12:25.821Z,21.72
2022-08-27T15:14:55.577Z,21.64
2022-08-27T15:17:34.967Z,21.74
2022-08-27T15:20:07.652Z,21.57
2022-08-27T15:22:38.553Z,21.57
2022-08-27T15:25:16.281Z,21.65
2022-08-27T15:27:44.780Z,21.38
2022-08-27T15:30:15.231Z,21.31
2022-08-27T15:32:45.913Z,21.33
2022-08-27T15:35:16.409Z,21.45
2022-08-27T15:37:46.076Z,21.46
2022-08-27T15:40:18.933Z,21.58
2022-08-27T15:42:51.961Z,21.49
2022-08-27T15:45:20.540Z,21.58
2022-08-27T15:47:53.884Z,21.71
2022-08-27T15:50:22.208Z,21.54
2022-08-27T15:52:56.147Z,21.60
2022-08-27T15:55:28.439Z,21.59
2022-08-27T15:57:56.899Z,21.65
2022-08-27T16:00:26.087Z,21.92
2022-08-27T16:02:55.401Z,22.08
2022-08-27T16:05:24.261Z,21.86
2022-08-27T16:07:52.615Z,22.21
2022-08-27T16:10:21.519Z,21.99
2022-08-27T16:12:51.572Z,22.11
2022-08-27T16:15:20.218Z,22.26
2022-08-27T16:17:50.525Z,22.40
2022-08-27T16:20:19.037Z,22.49
2022-08-27T16:22:47.324Z,22.56
2022-08-27T16:25:20.549Z,22.58
2022-08-27T16:27:49.010Z,22.41
2022-08-27T16:30:19.374Z,22.42
2022-08-27T16:32:52.106Z,22.43
2022-08-27T16:35:21.490Z,22.65
2022-08-27T16:37:49.839Z,22.51
2022-08-27T16:40:18.747Z,22.48
2022-08-27T16:42:49.880Z,22.45
2022-08-27T16:45:22.599Z,22.55
2022-08-27T16:48:09.127Z,22.54
2022-08-27T16:50:37.799Z,22.43
2022-08-27T16:53:09.242Z,22.57
2022-08-27T16:55:39.121Z,22.09
2022-08-27T16:58:11.063Z,22.40
2022-08-27T17:00:40.944Z,22.12
2022-08-27T17:03:09.395Z,21.99
2022-08-27T17:05:37.716Z,21.95
2022-08-27T17:08:11.719Z,21.85
2022-08-27T17:10:45.553Z,21.91
2022-08-27T17:13:16.133Z,21.83
2022-08-27T17:15:53.097Z,21.41
2022-08-27T17:18:27.162Z,21.37
2022-08-27T17:20:56.930Z,21.56
2022-08-27T17:23:30.045Z,21.36
2022-08-27T17:25:58.447Z,21.24
2022-08-27T17:28:27.237Z,21.37
2022-08-27T17:31:01.003Z,21.40
2022-08-27T17:33:33.100Z,21.19
2022-08-27T17:36:01.641Z,21.41
2022-08-27T17:38:32.694Z,21.20
2022-08-27T17:41:06.885Z,21.23
2022-08-27T17:43:35.270Z,21.03
2022-08-27T17:46:05.123Z,20.97
2022-08-27T17:48:33.600Z,20.88
2022-08-27T17:51:02.073Z,20.95
2022-08-27T17:53:30.354Z,20.89
2022-08-27T17:55:58.719Z,20.82
2022-08-27T17:58:27.036Z,20.72
2022-08-27T18:00:57.610Z,20.63
2022-08-27T18:03:27.424Z,20.78
2022-08-27T18:05:56.168Z,20.70
2022-08-27T18:08:24.706Z,20.78
2022-08-27T18:10:53.659Z,20.69
2022-08-27T18:13:24.265Z,20.79
2022-08-27T18:15:52.663Z,20.79
2022-08-27T18:18:21.436Z,20.82
2022-08-27T18:20:51.586Z,20.85
2022-08-27T18:23:20.861Z,20.69
2022-08-27T18:25:49.332Z,20.67
2022-08-27T18:28:19.609Z,20.63
2022-08-27T18:30:48.465Z,20.52
2022-08-27T18:33:16.942Z,20.36
2022-08-27T18:35:45.647Z,20.36
2022-08-27T18:38:15.364Z,20.39
2022-08-27T18:40:48.691Z,20.45
2022-08-27T18:43:19.397Z,20.45
2022-08-27T18:45:47.999Z,20.40
2022-08-27T18:48:18.691Z,20.37
2022-08-27T18:50:50.467Z,20.54
2022-08-27T18:53:21.393Z,20.49
2022-08-27T18:55:53.537Z,20.34
2022-08-27T18:58:22.282Z,20.20
2022-08-27T19:00:53.075Z,20.13
2022-08-27T19:03:24.015Z,20.24
2022-08-27T19:05:54.962Z,19.91
2022-08-27T19:08:25.960Z,19.93
2022-08-27T19:10:54.579Z,19.96
2022-08-27T19:13:23.144Z,19.97
2022-08-27T19:15:55.811Z,20.02
2022-08-27T19:18:28.569Z,19.87
2022-08-27T19:20:57.290Z,19.79
2022-08-27T19:23:27.424Z,19.62
2022-08-27T19:25:56.250Z,19.29
2022-08-27T19:28:26.925Z,19.33
2022-08-27T19:30:56.129Z,19.64
2022-08-27T19:33:26.759Z,19.49
2022-08-27T19:35:55.163Z,19.35
2022-08-27T19:38:25.764Z,19.38
2022-08-27T19:40:55.481Z,19.52
2022-08-27T19:43:23.848Z,19.33
2022-08-27T19:45:52.435Z,19.31
2022-08-27T19:48:20.954Z,19.32
2022-08-27T19:50:49.302Z,19.34
2022-08-27T19:53:19.268Z,19.25
2022-08-27T19:55:47.707Z,19.19
2022-08-27T19:58:19.347Z,19.18
2022-08-27T20:00:50.955Z,19.17
2022-08-27T20:03:19.441Z,18.85
2022-08-27T20:05:50.998Z,18.84
2022-08-27T20:08:20.027Z,18.97
2022-08-27T20:10:48.961Z,18.69
2022-08-27T20:13:20.069Z,18.72
2022-08-27T20:15:48.679Z,18.80
2022-08-27T20:18:19.212Z,18.81
2022-08-27T20:20:47.917Z,19.04
2022-08-27T20:23:16.308Z,19.03
2022-08-27T20:25:45.364Z,18.67
2022-08-27T20:28:37.760Z,18.44
2022-08-27T20:31:04.034Z,18.69
2022-08-27T20:33:32.402Z,18.42
2022-08-27T20:36:01.432Z,18.10
2022-08-27T20:38:29.793Z,18.03
2022-08-27T20:41:00.439Z,18.06
2022-08-27T20:43:29.986Z,18.12
2022-08-27T20:45:58.618Z,18.20
2022-08-27T20:48:28.910Z,17.90
2022-08-27T20:50:57.399Z,18.25
2022-08-27T20:53:26.819Z,18.01
2022-08-27T20:55:56.539Z,17.97
2022-08-27T20:58:43.051Z,18.06
2022-08-27T21:01:12.111Z,18.00
2022-08-27T21:03:44.496Z,18.23
2022-08-27T21:06:13.714Z,18.28
2022-08-27T21:08:42.112Z,18.44
2022-08-27T21:11:12.471Z,18.32
2022-08-27T21:13:55.163Z,18.49
2022-08-27T21:16:24.832Z,18.54
2022-08-27T21:18:55.558Z,18.43
2022-08-27T21:21:24.054Z,18.42
2022-08-27T21:23:52.533Z,18.59
2022-08-27T21:26:22.826Z,19.28
2022-08-27T21:28:55.733Z,18.78
2022-08-27T21:31:25.330Z,18.57
2022-08-27T21:33:55.215Z,18.52
2022-08-27T21:36:23.935Z,18.57
2022-08-27T21:38:52.282Z,18.68
2022-08-27T21:41:21.063Z,18.80
2022-08-27T21:43:49.453Z,18.76
2022-08-27T21:46:19.502Z,18.77
2022-08-27T21:48:50.028Z,18.83
2022-08-27T21:51:28.898Z,18.72
2022-08-27T21:53:58.809Z,18.83
2022-08-27T21:56:27.726Z,18.69
2022-08-27T21:58:56.110Z,18.83
2022-08-27T22:02:40.162Z,18.59
2022-08-27T22:05:10.079Z,18.85
2022-08-27T22:07:38.431Z,18.56
2022-08-27T22:10:07.774Z,18.72
2022-08-27T22:12:36.432Z,18.78
2022-08-27T22:15:07.793Z,18.75
2022-08-27T22:17:37.527Z,18.77
2022-08-27T22:20:09.513Z,18.77
2022-08-27T22:22:38.010Z,18.73
2022-08-27T22:25:08.362Z,18.73
2022-08-27T22:27:37.189Z,19.03
2022-08-27T22:30:11.062Z,18.61
2022-08-27T22:32:42.195Z,18.64
2022-08-27T22:35:12.404Z,18.68
2022-08-27T22:37:40.903Z,18.68
2022-08-27T22:40:19.513Z,18.54
2022-08-27T22:42:48.903Z,18.75
2022-08-27T22:45:17.835Z,18.55
2022-08-27T22:47:48.217Z,18.91
2022-08-27T22:50:17.274Z,18.54
2022-08-27T22:52:46.389Z,18.22
2022-08-27T22:55:18.670Z,18.18
2022-08-27T22:57:50.034Z,18.07
2022-08-27T23:00:21.238Z,17.90
2022-08-27T23:02:50.813Z,18.12
2022-08-27T23:05:19.432Z,18.14
2022-08-27T23:07:47.602Z,18.03
2022-08-27T23:10:18.030Z,17.89
2022-08-27T23:12:46.564Z,17.73
2022-08-27T23:15:16.206Z,17.67
2022-08-27T23:17:44.299Z,17.75
2022-08-27T23:20:14.409Z,17.72
2022-08-27T23:22:42.890Z,17.72
2022-08-27T23:25:30.003Z,17.85
2022-08-27T23:27:59.756Z,17.75
2022-08-27T23:30:28.099Z,17.69
2022-08-27T23:32:56.826Z,17.75
2022-08-27T23:35:27.576Z,17.63
2022-08-27T23:37:57.167Z,17.63
2022-08-27T23:40:25.893Z,17.73
2022-08-27T23:42:54.840Z,17.81
2022-08-27T23:45:26.907Z,17.89
2022-08-27T23:47:57.568Z,17.92
2022-08-27T23:50:34.474Z,17.84
2022-08-27T23:53:02.929Z,17.80
2022-08-27T23:55:32.353Z,18.00
2022-08-27T23:58:01.358Z,17.90
